Time;durP1;ratioP1;P1;durP2;ratioP2;P2;SDS_P1;SDS_P2;PMS_P1;PMS_P2;Temp;Humidity;BMP_temperature;BMP_pressure;BME280_temperature;BME280_humidity;BME280_pressure;Samples;Min_cycle;Max_cycle;Signal;HPM_P1;HPM_P2
2022/10/15 00:00:46;;;;;;;1.85;1.70;;;;;;;;;;4491740;28;20559;-57
2022/10/15 00:02:57;;;;;;;1.73;1.63;;;;;;;;;;4492142;28;20038;-57
2022/10/15 00:05:07;;;;;;;2.80;1.90;;;;;;;;;;4490633;28;38060;-57
2022/10/15 00:07:18;;;;;;;1.75;1.60;;;;;;;;;;4490696;28;20034;-57
2022/10/15 00:09:28;;;;;;;1.75;1.60;;;;;;;;;;4491991;28;20157;-57
2022/10/15 00:11:39;;;;;;;1.60;1.50;;;;;;;;;;4490850;28;29332;-58
2022/10/15 00:13:52;;;;;;;2.47;1.38;;;;;;;;;;4492421;28;20468;-57
2022/10/15 00:16:03;;;;;;;1.90;1.63;;;;;;;;;;4484643;28;20505;-58
2022/10/15 00:18:13;;;;;;;2.00;1.80;;;;;;;;;;4492694;28;20058;-58
2022/10/15 00:20:23;;;;;;;2.08;1.88;;;;;;;;;;4492540;28;28277;-57
2022/10/15 00:22:34;;;;;;;2.08;1.63;;;;;;;;;;4491342;28;20045;-58
2022/10/15 00:24:45;;;;;;;1.50;1.35;;;;;;;;;;4492186;28;20122;-58
2022/10/15 00:26:55;;;;;;;1.52;1.42;;;;;;;;;;4492559;28;20039;-57
2022/10/15 00:29:06;;;;;;;1.95;1.75;;;;;;;;;;4494024;28;20037;-57
2022/10/15 00:31:19;;;;;;;1.70;1.60;;;;;;;;;;4494136;28;35344;-57
2022/10/15 00:33:32;;;;;;;1.73;1.38;;;;;;;;;;4478675;28;20027;-58
2022/10/15 00:35:42;;;;;;;1.73;1.60;;;;;;;;;;4493025;28;20480;-58
2022/10/15 00:37:52;;;;;;;1.88;1.52;;;;;;;;;;4492908;28;20046;-58
2022/10/15 00:40:03;;;;;;;1.88;1.60;;;;;;;;;;4500344;28;20046;-57
2022/10/15 00:42:15;;;;;;;2.00;1.80;;;;;;;;;;4479573;28;20590;-58
2022/10/15 00:44:29;;;;;;;2.05;1.85;;;;;;;;;;4493890;28;20184;-57
2022/10/15 00:46:41;;;;;;;3.00;1.90;;;;;;;;;;4506162;28;20160;-57
2022/10/15 00:48:56;;;;;;;2.40;1.85;;;;;;;;;;4500989;28;20042;-57
2022/10/15 00:51:07;;;;;;;2.38;1.80;;;;;;;;;;4474195;28;20117;-57
2022/10/15 00:53:17;;;;;;;2.53;1.90;;;;;;;;;;4490260;28;28314;-58
2022/10/15 00:55:30;;;;;;;2.60;1.90;;;;;;;;;;4477618;28;20428;-58
2022/10/15 00:57:42;;;;;;;2.92;2.05;;;;;;;;;;4489915;28;20063;-58
2022/10/15 00:59:56;;;;;;;2.38;2.10;;;;;;;;;;4483527;28;20148;-58
2022/10/15 01:02:07;;;;;;;2.17;1.90;;;;;;;;;;4491841;28;20036;-58
2022/10/15 01:04:18;;;;;;;2.67;2.00;;;;;;;;;;4490704;28;20038;-58
2022/10/15 01:06:29;;;;;;;2.53;1.90;;;;;;;;;;4493507;28;20030;-57
2022/10/15 01:08:39;;;;;;;2.95;1.98;;;;;;;;;;4477390;28;20521;-57
2022/10/15 01:11:48;;;;;;;2.40;1.98;;;;;;;;;;4500208;28;20034;-57
2022/10/15 01:14:18;;;;;;;2.30;2.10;;;;;;;;;;4484868;28;20771;-58
2022/10/15 01:16:57;;;;;;;3.28;2.10;;;;;;;;;;4483207;28;20066;-57
2022/10/15 01:19:18;;;;;;;2.45;2.05;;;;;;;;;;4492686;28;20046;-58
2022/10/15 01:21:34;;;;;;;2.78;2.13;;;;;;;;;;4491840;28;20038;-57
2022/10/15 01:24:03;;;;;;;2.55;1.90;;;;;;;;;;4497018;28;20034;-62
2022/10/15 01:26:24;;;;;;;2.33;2.10;;;;;;;;;;4490717;28;20041;-58
2022/10/15 01:29:08;;;;;;;2.60;2.05;;;;;;;;;;4498962;28;20049;-57
2022/10/15 01:31:25;;;;;;;2.40;1.95;;;;;;;;;;4490630;28;20036;-57
2022/10/15 01:33:43;;;;;;;2.17;1.95;;;;;;;;;;4491283;28;20034;-58
2022/10/15 01:35:58;;;;;;;2.72;2.30;;;;;;;;;;4483348;28;20182;-57
2022/10/15 01:38:22;;;;;;;2.90;2.10;;;;;;;;;;4499879;28;20033;-58
2022/10/15 01:40:37;;;;;;;2.10;1.90;;;;;;;;;;4494836;28;20053;-57
2022/10/15 01:42:59;;;;;;;2.80;2.50;;;;;;;;;;4507097;28;20215;-57
2022/10/15 01:45:24;;;;;;;2.65;2.13;;;;;;;;;;4474682;28;20035;-57
2022/10/15 01:48:01;;;;;;;2.28;1.88;;;;;;;;;;4498210;28;20034;-58
2022/10/15 01:50:14;;;;;;;2.58;1.98;;;;;;;;;;4494229;28;20041;-58
2022/10/15 01:52:26;;;;;;;2.10;1.90;;;;;;;;;;4481023;28;20042;-58
2022/10/15 01:54:37;;;;;;;2.00;1.80;;;;;;;;;;4483766;28;20039;-58
2022/10/15 01:56:49;;;;;;;2.00;1.80;;;;;;;;;;4482774;28;21655;-58
2022/10/15 01:59:03;;;;;;;3.03;2.28;;;;;;;;;;4491720;28;20077;-57
2022/10/15 02:01:14;;;;;;;2.20;2.00;;;;;;;;;;4479119;28;20109;-58
2022/10/15 02:03:24;;;;;;;2.25;2.00;;;;;;;;;;4497095;28;20037;-57
2022/10/15 02:05:41;;;;;;;3.00;2.00;;;;;;;;;;4496080;28;20035;-58
2022/10/15 02:08:22;;;;;;;2.03;1.80;;;;;;;;;;4493368;28;20034;-58
2022/10/15 02:10:42;;;;;;;2.10;1.90;;;;;;;;;;4478483;28;20150;-58
2022/10/15 02:13:26;;;;;;;2.10;1.90;;;;;;;;;;4477798;28;20041;-58
2022/10/15 02:15:52;;;;;;;2.60;2.10;;;;;;;;;;4494837;28;20298;-58
2022/10/15 02:18:22;;;;;;;2.88;2.00;;;;;;;;;;4501703;28;20034;-58
2022/10/15 02:21:04;;;;;;;1.92;1.70;;;;;;;;;;4493089;28;21586;-57
2022/10/15 02:23:21;;;;;;;2.25;1.70;;;;;;;;;;4501343;28;20033;-58
2022/10/15 02:25:32;;;;;;;;;;;;;;;;;;4486079;28;20037;-58
2022/10/15 02:27:44;;;;;;;2.65;1.95;;;;;;;;;;4478918;28;19984;-57
2022/10/15 02:29:56;;;;;;;2.38;2.13;;;;;;;;;;4503193;28;20726;-57
2022/10/15 02:32:07;;;;;;;2.30;1.95;;;;;;;;;;4498827;28;20037;-58
2022/10/15 02:34:20;;;;;;;2.50;1.92;;;;;;;;;;4508700;28;20657;-58
2022/10/15 02:36:31;;;;;;;2.42;2.20;;;;;;;;;;4502849;28;20137;-58
2022/10/15 02:38:43;;;;;;;2.00;1.80;;;;;;;;;;4479385;28;20573;-58
2022/10/15 02:40:54;;;;;;;2.70;1.83;;;;;;;;;;4497908;28;20029;-58
2022/10/15 02:43:05;;;;;;;2.20;1.85;;;;;;;;;;4493654;28;20034;-57
2022/10/15 02:45:16;;;;;;;2.03;1.80;;;;;;;;;;4483613;28;20100;-58
2022/10/15 02:47:26;;;;;;;2.22;1.85;;;;;;;;;;4492678;28;20100;-57
2022/10/15 02:49:38;;;;;;;2.28;1.90;;;;;;;;;;4491451;28;20035;-57
2022/10/15 02:51:48;;;;;;;2.42;2.10;;;;;;;;;;4501548;28;20046;-58
2022/10/15 02:54:01;;;;;;;2.30;1.90;;;;;;;;;;4496379;28;20033;-58
2022/10/15 02:56:11;;;;;;;2.28;1.98;;;;;;;;;;4485270;28;20108;-58
2022/10/15 02:58:22;;;;;;;2.50;1.90;;;;;;;;;;4494855;28;20056;-58
2022/10/15 03:00:32;;;;;;;2.38;2.00;;;;;;;;;;4501712;28;20033;-58
2022/10/15 03:02:44;;;;;;;2.40;2.20;;;;;;;;;;4479712;28;20081;-58
2022/10/15 03:04:55;;;;;;;2.17;1.83;;;;;;;;;;4502572;28;20030;-58
2022/10/15 03:07:07;;;;;;;2.13;1.90;;;;;;;;;;4489962;28;20053;-57
2022/10/15 03:09:17;;;;;;;2.70;1.90;;;;;;;;;;4493487;28;20045;-58
2022/10/15 03:11:27;;;;;;;2.17;1.98;;;;;;;;;;4493708;28;20038;-57
2022/10/15 03:13:38;;;;;;;2.25;2.05;;;;;;;;;;4495118;28;20593;-57
2022/10/15 03:15:49;;;;;;;3.53;2.20;;;;;;;;;;4501419;28;20042;-57
2022/10/15 03:17:59;;;;;;;2.58;2.10;;;;;;;;;;4496516;28;20034;-58
2022/10/15 03:20:10;;;;;;;2.33;2.13;;;;;;;;;;4500131;28;20054;-57
2022/10/15 03:22:22;;;;;;;2.35;2.10;;;;;;;;;;4495191;28;20037;-58
2022/10/15 03:24:36;;;;;;;2.25;2.00;;;;;;;;;;4493535;28;20089;-58
2022/10/15 03:26:47;;;;;;;2.35;2.10;;;;;;;;;;4495484;28;20042;-58
2022/10/15 03:28:57;;;;;;;2.38;2.00;;;;;;;;;;4494609;28;20056;-58
2022/10/15 03:31:29;;;;;;;2.20;2.00;;;;;;;;;;4497490;28;20069;-58
2022/10/15 03:33:41;;;;;;;2.88;2.20;;;;;;;;;;4494779;28;20076;-58
2022/10/15 03:35:52;;;;;;;2.30;2.10;;;;;;;;;;4494594;28;20080;-58
2022/10/15 03:38:02;;;;;;;2.50;2.20;;;;;;;;;;4490331;28;23309;-58
2022/10/15 03:40:13;;;;;;;2.60;2.22;;;;;;;;;;4490881;28;20034;-58
2022/10/15 03:42:24;;;;;;;2.22;2.03;;;;;;;;;;4493415;28;20523;-58
2022/10/15 03:44:34;;;;;;;2.38;2.10;;;;;;;;;;4493161;28;20416;-58
2022/10/15 03:46:51;;;;;;;2.72;2.50;;;;;;;;;;4500196;28;20037;-58
2022/10/15 03:49:05;;;;;;;3.20;2.45;;;;;;;;;;4494732;28;20038;-58
2022/10/15 03:51:16;;;;;;;3.95;2.60;;;;;;;;;;4494894;28;20029;-58
2022/10/15 03:53:28;;;;;;;3.20;2.60;;;;;;;;;;4493075;28;20041;-58
2022/10/15 03:55:38;;;;;;;3.03;2.72;;;;;;;;;;4492817;28;20045;-58
2022/10/15 03:57:48;;;;;;;3.78;3.28;;;;;;;;;;4495098;28;20522;-58
2022/10/15 03:59:59;;;;;;;3.60;3.15;;;;;;;;;;4499947;28;20046;-58
2022/10/15 04:02:12;;;;;;;3.20;2.90;;;;;;;;;;4492854;28;20081;-58
2022/10/15 04:04:22;;;;;;;4.00;2.67;;;;;;;;;;4492113;28;20034;-58
2022/10/15 04:06:33;;;;;;;2.83;2.40;;;;;;;;;;4492611;28;20046;-58
2022/10/15 04:08:47;;;;;;;3.88;2.97;;;;;;;;;;4500634;28;20527;-58
2022/10/15 04:11:05;;;;;;;3.22;2.60;;;;;;;;;;4493561;28;20097;-58
2022/10/15 04:13:16;;;;;;;3.80;3.33;;;;;;;;;;4495356;28;20065;-57
2022/10/15 04:15:26;;;;;;;3.67;3.38;;;;;;;;;;4494282;28;20034;-58
2022/10/15 04:17:47;;;;;;;4.25;3.63;;;;;;;;;;4490918;28;21054;-58
2022/10/15 04:19:57;;;;;;;7.57;5.85;;;;;;;;;;4493396;28;37129;-58
2022/10/15 04:22:09;;;;;;;5.25;4.00;;;;;;;;;;4494233;28;20678;-58
2022/10/15 04:24:26;;;;;;;3.90;3.22;;;;;;;;;;4495438;28;20733;-57
2022/10/15 04:26:36;;;;;;;3.60;3.15;;;;;;;;;;4493642;28;20049;-58
2022/10/15 04:28:48;;;;;;;3.83;3.30;;;;;;;;;;4494882;28;20041;-58
2022/10/15 04:30:59;;;;;;;4.40;3.55;;;;;;;;;;4492678;28;20507;-58
2022/10/15 04:33:10;;;;;;;4.53;3.85;;;;;;;;;;4506651;28;20053;-58
2022/10/15 04:35:21;;;;;;;4.68;4.20;;;;;;;;;;4491259;28;20443;-58
2022/10/15 04:37:46;;;;;;;4.72;4.20;;;;;;;;;;4494727;28;20097;-58
2022/10/15 04:39:57;;;;;;;4.95;3.92;;;;;;;;;;4492698;28;20766;-58
2022/10/15 04:42:07;;;;;;;4.13;3.65;;;;;;;;;;4499756;28;20044;-58
2022/10/15 04:44:19;;;;;;;4.40;3.65;;;;;;;;;;4492966;28;20082;-58
2022/10/15 04:46:35;;;;;;;;;;;;;;;;;;4489829;28;20022;-58
2022/10/15 04:48:56;;;;;;;;;;;;;;;;;;4495159;28;19924;-58
2022/10/15 04:51:11;;;;;;;3.97;3.33;;;;;;;;;;4494272;28;19929;-57
2022/10/15 04:53:41;;;;;;;4.68;3.60;;;;;;;;;;4501253;28;20030;-58
2022/10/15 04:55:52;;;;;;;4.07;3.28;;;;;;;;;;4493436;28;20054;-58
2022/10/15 04:58:03;;;;;;;4.63;3.70;;;;;;;;;;4476649;28;20030;-58
2022/10/15 05:00:14;;;;;;;5.03;3.90;;;;;;;;;;4491047;28;20277;-58
2022/10/15 05:02:43;;;;;;;5.45;4.20;;;;;;;;;;4492520;28;20141;-58
2022/10/15 05:05:08;;;;;;;5.35;4.47;;;;;;;;;;4490746;28;20025;-57
2022/10/15 05:07:25;;;;;;;5.70;4.55;;;;;;;;;;4493775;28;20022;-58
2022/10/15 05:09:36;;;;;;;6.15;4.88;;;;;;;;;;4494147;28;20697;-58
2022/10/15 05:11:47;;;;;;;6.20;4.70;;;;;;;;;;4491553;28;20116;-58
2022/10/15 05:13:58;;;;;;;5.35;4.50;;;;;;;;;;4493616;28;20076;-58
2022/10/15 05:16:11;;;;;;;6.55;4.70;;;;;;;;;;4505336;28;20025;-58
2022/10/15 05:18:22;;;;;;;6.85;5.13;;;;;;;;;;4500874;28;20045;-58
2022/10/15 05:20:35;;;;;;;7.00;5.38;;;;;;;;;;4492952;28;20041;-58
2022/10/15 05:22:46;;;;;;;7.32;5.57;;;;;;;;;;4494780;28;20037;-58
2022/10/15 05:24:57;;;;;;;8.15;5.88;;;;;;;;;;4489232;28;20062;-58
2022/10/15 05:27:19;;;;;;;7.68;6.22;;;;;;;;;;4499416;28;20045;-58
2022/10/15 05:29:29;;;;;;;7.82;6.05;;;;;;;;;;4493117;28;20041;-58
2022/10/15 05:31:40;;;;;;;8.20;6.13;;;;;;;;;;4493578;28;20037;-58
2022/10/15 05:33:58;;;;;;;4.75;3.72;;;;;;;;;;4491350;28;20038;-57
2022/10/15 05:36:17;;;;;;;4.53;3.47;;;;;;;;;;4496394;28;20366;-57
2022/10/15 05:38:29;;;;;;;3.78;3.08;;;;;;;;;;4506010;28;20065;-57
2022/10/15 05:40:39;;;;;;;3.28;2.88;;;;;;;;;;4493041;28;20045;-58
2022/10/15 05:42:57;;;;;;;3.88;2.80;;;;;;;;;;4479258;28;20022;-57
2022/10/15 05:45:07;;;;;;;2.70;2.42;;;;;;;;;;4490592;28;20038;-58
2022/10/15 05:47:18;;;;;;;7.70;6.18;;;;;;;;;;4489852;28;20030;-58
2022/10/15 05:49:29;;;;;;;6.05;5.22;;;;;;;;;;4499514;28;20104;-57
2022/10/15 05:51:55;;;;;;;8.05;6.15;;;;;;;;;;4492963;28;20041;-58
2022/10/15 05:54:23;;;;;;;7.60;5.65;;;;;;;;;;4499442;28;20811;-58
2022/10/15 05:56:33;;;;;;;7.55;5.97;;;;;;;;;;4490311;28;23334;-58
2022/10/15 05:58:44;;;;;;;7.68;5.90;;;;;;;;;;4495297;28;20038;-58
2022/10/15 06:00:59;;;;;;;7.80;6.10;;;;;;;;;;4489868;28;20524;-58
2022/10/15 06:03:16;;;;;;;7.28;5.90;;;;;;;;;;4488516;28;20056;-59
2022/10/15 06:05:26;;;;;;;7.13;5.70;;;;;;;;;;4483815;28;20031;-58
2022/10/15 06:07:37;;;;;;;6.60;5.07;;;;;;;;;;4490195;28;20026;-57
2022/10/15 06:09:48;;;;;;;7.90;5.90;;;;;;;;;;4489848;28;20045;-57
2022/10/15 06:12:00;;;;;;;6.85;5.60;;;;;;;;;;4491527;28;20043;-58
2022/10/15 06:14:11;;;;;;;7.15;5.60;;;;;;;;;;4489308;28;27678;-58
2022/10/15 06:16:21;;;;;;;7.53;6.03;;;;;;;;;;4489372;28;20515;-57
2022/10/15 06:18:32;;;;;;;7.00;5.70;;;;;;;;;;4490580;28;20796;-58
2022/10/15 06:20:50;;;;;;;7.13;5.63;;;;;;;;;;4488504;28;20031;-57
2022/10/15 06:23:01;;;;;;;6.35;5.28;;;;;;;;;;4489710;28;20030;-58
2022/10/15 06:25:12;;;;;;;6.30;5.13;;;;;;;;;;4491942;28;20037;-58
2022/10/15 06:27:22;;;;;;;5.97;5.10;;;;;;;;;;4489283;28;20042;-58
2022/10/15 06:29:33;;;;;;;6.68;5.22;;;;;;;;;;4488684;28;21284;-58
2022/10/15 06:31:44;;;;;;;6.88;5.78;;;;;;;;;;4490089;28;20558;-58
2022/10/15 06:33:55;;;;;;;6.38;5.05;;;;;;;;;;4489404;28;35307;-58
2022/10/15 06:36:07;;;;;;;6.50;5.20;;;;;;;;;;4489864;28;20062;-58
2022/10/15 06:38:17;;;;;;;7.63;5.47;;;;;;;;;;4491279;28;20026;-58
2022/10/15 06:40:28;;;;;;;6.65;5.63;;;;;;;;;;4490061;28;20049;-57
2022/10/15 06:42:38;;;;;;;6.80;5.35;;;;;;;;;;4490915;28;24695;-58
2022/10/15 06:44:49;;;;;;;5.93;4.90;;;;;;;;;;4491965;28;20050;-58
2022/10/15 06:47:00;;;;;;;6.20;5.00;;;;;;;;;;4492806;28;20044;-58
2022/10/15 06:49:11;;;;;;;6.18;5.15;;;;;;;;;;4492195;28;26051;-58
2022/10/15 06:51:26;;;;;;;6.28;5.03;;;;;;;;;;4492539;28;20041;-58
2022/10/15 06:53:39;;;;;;;6.20;4.90;;;;;;;;;;4491958;28;25435;-58
2022/10/15 06:55:49;;;;;;;6.35;4.82;;;;;;;;;;4493409;28;20033;-58
2022/10/15 06:58:00;;;;;;;6.18;5.10;;;;;;;;;;4492424;28;20048;-57
2022/10/15 07:00:12;;;;;;;5.97;5.00;;;;;;;;;;4494016;28;20088;-58
2022/10/15 07:02:23;;;;;;;6.10;5.07;;;;;;;;;;4495996;28;20032;-57
2022/10/15 07:04:34;;;;;;;6.90;5.05;;;;;;;;;;4496014;28;20049;-58
2022/10/15 07:06:44;;;;;;;6.53;5.07;;;;;;;;;;4492765;28;20030;-57
2022/10/15 07:08:57;;;;;;;6.57;4.93;;;;;;;;;;4493409;28;22623;-58
2022/10/15 07:11:10;;;;;;;6.10;4.95;;;;;;;;;;4492470;28;20540;-58
2022/10/15 07:13:21;;;;;;;5.47;4.70;;;;;;;;;;4492759;28;20030;-58
2022/10/15 07:15:31;;;;;;;5.20;4.45;;;;;;;;;;4492060;28;20027;-57
2022/10/15 07:17:49;;;;;;;5.53;4.80;;;;;;;;;;4494468;28;23817;-58
2022/10/15 07:19:59;;;;;;;5.78;4.70;;;;;;;;;;4492890;28;20523;-58
2022/10/15 07:22:10;;;;;;;5.63;4.90;;;;;;;;;;4492146;28;23050;-58
2022/10/15 07:24:20;;;;;;;5.25;4.38;;;;;;;;;;4490928;28;41605;-58
2022/10/15 07:26:30;;;;;;;6.13;4.80;;;;;;;;;;4491525;28;20321;-58
2022/10/15 07:28:41;;;;;;;5.22;4.22;;;;;;;;;;4491650;28;20037;-57
2022/10/15 07:30:52;;;;;;;6.40;4.90;;;;;;;;;;4491762;28;21384;-57
2022/10/15 07:33:02;;;;;;;6.05;4.80;;;;;;;;;;4491802;28;20042;-58
2022/10/15 07:35:14;;;;;;;5.65;4.78;;;;;;;;;;4494522;28;20092;-58
2022/10/15 07:37:24;;;;;;;5.78;4.47;;;;;;;;;;4493075;28;20607;-58
2022/10/15 07:39:34;;;;;;;5.43;4.60;;;;;;;;;;4492759;28;36743;-58
2022/10/15 07:41:45;;;;;;;5.32;4.22;;;;;;;;;;4492085;28;20116;-57
2022/10/15 07:43:55;;;;;;;5.13;4.18;;;;;;;;;;4492251;28;20526;-57
2022/10/15 07:46:06;;;;;;;5.25;4.20;;;;;;;;;;4500148;28;35573;-57
2022/10/15 07:48:16;;;;;;;5.18;4.25;;;;;;;;;;4493587;28;20065;-57
2022/10/15 07:50:27;;;;;;;4.82;4.10;;;;;;;;;;4475327;28;20408;-57
2022/10/15 07:52:41;;;;;;;4.88;4.00;;;;;;;;;;4499775;28;20030;-57
2022/10/15 07:54:51;;;;;;;4.82;3.97;;;;;;;;;;4493797;28;20038;-57
2022/10/15 07:57:03;;;;;;;5.15;4.15;;;;;;;;;;4490860;28;20041;-58
2022/10/15 07:59:13;;;;;;;5.32;4.00;;;;;;;;;;4492050;28;20507;-57
2022/10/15 08:01:23;;;;;;;4.93;4.03;;;;;;;;;;4495509;28;20649;-57
2022/10/15 08:03:34;;;;;;;5.20;4.20;;;;;;;;;;4495071;28;20076;-57
2022/10/15 08:05:45;;;;;;;5.10;4.18;;;;;;;;;;4492867;28;20139;-58
2022/10/15 08:07:55;;;;;;;5.00;4.30;;;;;;;;;;4489951;28;39485;-58
2022/10/15 08:10:06;;;;;;;4.97;4.25;;;;;;;;;;4495110;28;20041;-58
2022/10/15 08:12:16;;;;;;;5.90;4.53;;;;;;;;;;4491922;28;20677;-57
2022/10/15 08:14:27;;;;;;;5.55;4.18;;;;;;;;;;4490708;28;20062;-57
2022/10/15 08:16:37;;;;;;;5.85;4.80;;;;;;;;;;4490907;28;20064;-58
2022/10/15 08:18:47;;;;;;;5.82;4.30;;;;;;;;;;4492687;28;20161;-58
2022/10/15 08:20:59;;;;;;;5.63;4.65;;;;;;;;;;4492764;28;20055;-58
2022/10/15 08:23:14;;;;;;;4.95;4.28;;;;;;;;;;4494289;28;20018;-57
2022/10/15 08:25:25;;;;;;;5.13;4.30;;;;;;;;;;4491846;28;20121;-58
2022/10/15 08:27:36;;;;;;;5.50;4.18;;;;;;;;;;4491906;28;20027;-57
2022/10/15 08:29:47;;;;;;;5.50;4.43;;;;;;;;;;4493486;28;20041;-57
2022/10/15 08:31:57;;;;;;;5.40;4.47;;;;;;;;;;4492191;28;20444;-57
2022/10/15 08:34:10;;;;;;;5.30;4.32;;;;;;;;;;4491591;28;20053;-58
2022/10/15 08:36:20;;;;;;;6.03;4.63;;;;;;;;;;4491118;28;20525;-57
2022/10/15 08:38:32;;;;;;;6.22;4.53;;;;;;;;;;4491279;28;20085;-57
2022/10/15 08:40:51;;;;;;;5.68;4.55;;;;;;;;;;4493012;28;20116;-57
2022/10/15 08:43:02;;;;;;;6.25;4.65;;;;;;;;;;4490181;28;20039;-57
2022/10/15 08:45:18;;;;;;;6.07;4.78;;;;;;;;;;4496324;28;20045;-57
2022/10/15 08:47:48;;;;;;;6.28;4.60;;;;;;;;;;4491481;28;20031;-59
2022/10/15 08:50:24;;;;;;;6.78;4.88;;;;;;;;;;4492748;28;20044;-58
2022/10/15 08:52:43;;;;;;;6.22;4.47;;;;;;;;;;4492732;28;20124;-58
2022/10/15 08:54:54;;;;;;;6.25;4.43;;;;;;;;;;4495362;28;20038;-58
2022/10/15 08:57:28;;;;;;;5.72;4.65;;;;;;;;;;4490656;28;20030;-57
2022/10/15 08:59:45;;;;;;;6.18;4.35;;;;;;;;;;4490203;28;20037;-56
2022/10/15 09:02:03;;;;;;;6.10;5.03;;;;;;;;;;4489520;28;20026;-57
2022/10/15 09:04:30;;;;;;;6.75;4.75;;;;;;;;;;4494487;28;20034;-58
2022/10/15 09:06:41;;;;;;;6.32;4.50;;;;;;;;;;4492446;28;20041;-57
2022/10/15 09:09:37;;;;;;;5.45;4.18;;;;;;;;;;4494600;28;20040;-57
2022/10/15 09:12:06;;;;;;;5.85;4.38;;;;;;;;;;4476350;28;20054;-57
2022/10/15 09:14:20;;;;;;;5.20;4.15;;;;;;;;;;4491302;28;20069;-58
2022/10/15 09:16:36;;;;;;;6.43;4.80;;;;;;;;;;4490207;28;20033;-58
2022/10/15 09:18:51;;;;;;;5.07;3.92;;;;;;;;;;4490749;28;20033;-58
2022/10/15 09:21:03;;;;;;;4.60;3.70;;;;;;;;;;4491675;28;20049;-58
2022/10/15 09:23:19;;;;;;;4.60;3.55;;;;;;;;;;4499925;28;20037;-58
2022/10/15 09:25:40;;;;;;;5.20;3.63;;;;;;;;;;4491291;28;20588;-57
2022/10/15 09:27:51;;;;;;;5.32;3.65;;;;;;;;;;4484228;28;20036;-58
2022/10/15 09:30:39;;;;;;;4.47;3.60;;;;;;;;;;4491879;28;20045;-58
2022/10/15 09:33:12;;;;;;;4.50;3.40;;;;;;;;;;4499616;28;20045;-57
2022/10/15 09:35:33;;;;;;;4.28;3.42;;;;;;;;;;4492243;28;20096;-57
2022/10/15 09:38:20;;;;;;;4.05;3.10;;;;;;;;;;4493824;28;20112;-62
2022/10/15 09:40:38;;;;;;;4.13;3.13;;;;;;;;;;4492717;28;20052;-57
2022/10/15 09:42:49;;;;;;;4.70;3.60;;;;;;;;;;4491924;28;20046;-58
2022/10/15 09:45:08;;;;;;;4.70;3.53;;;;;;;;;;4491875;28;20143;-57
2022/10/15 09:47:24;;;;;;;4.10;3.20;;;;;;;;;;4491506;28;20038;-58
2022/10/15 09:49:41;;;;;;;3.60;2.78;;;;;;;;;;4491583;28;20547;-57
2022/10/15 09:52:24;;;;;;;3.47;2.63;;;;;;;;;;4491325;28;20034;-58
2022/10/15 09:54:44;;;;;;;3.78;3.13;;;;;;;;;;4499659;28;20034;-57
2022/10/15 09:56:56;;;;;;;3.90;3.08;;;;;;;;;;4505221;28;20038;-58
2022/10/15 09:59:14;;;;;;;3.78;3.13;;;;;;;;;;4491747;28;20038;-58
2022/10/15 10:01:30;;;;;;;3.70;2.92;;;;;;;;;;4491753;28;20038;-58
2022/10/15 10:03:40;;;;;;;3.72;2.92;;;;;;;;;;4491238;28;20061;-59
2022/10/15 10:05:58;;;;;;;4.30;3.20;;;;;;;;;;4489832;28;20045;-56
2022/10/15 10:08:20;;;;;;;3.35;2.60;;;;;;;;;;4496895;28;20137;-57
2022/10/15 10:10:31;;;;;;;3.03;2.50;;;;;;;;;;4493787;28;20091;-57
2022/10/15 10:12:42;;;;;;;2.60;2.10;;;;;;;;;;4490521;28;20081;-57
2022/10/15 10:14:52;;;;;;;2.30;1.90;;;;;;;;;;4494995;28;20045;-58
2022/10/15 10:17:05;;;;;;;2.83;2.45;;;;;;;;;;4492177;28;20870;-57
2022/10/15 10:19:16;;;;;;;3.88;3.15;;;;;;;;;;4491400;28;20026;-58
2022/10/15 10:21:34;;;;;;;2.83;2.13;;;;;;;;;;4500368;28;37878;-57
2022/10/15 10:23:45;;;;;;;1.98;1.52;;;;;;;;;;4492767;28;20038;-57
2022/10/15 10:25:57;;;;;;;2.08;1.58;;;;;;;;;;4493142;28;20038;-57
2022/10/15 10:28:08;;;;;;;1.90;1.52;;;;;;;;;;4486778;28;20034;-58
2022/10/15 10:30:19;;;;;;;2.00;1.58;;;;;;;;;;4495525;28;20038;-57
2022/10/15 10:32:32;;;;;;;1.77;1.40;;;;;;;;;;4493782;28;20778;-57
2022/10/15 10:34:43;;;;;;;3.03;1.80;;;;;;;;;;4494378;28;20661;-57
2022/10/15 10:36:54;;;;;;;2.25;1.85;;;;;;;;;;4492289;28;20121;-57
2022/10/15 10:39:19;;;;;;;1.58;1.40;;;;;;;;;;4483257;28;20034;-58
2022/10/15 10:41:55;;;;;;;1.35;1.23;;;;;;;;;;4492732;28;20674;-58
2022/10/15 10:44:18;;;;;;;1.45;1.20;;;;;;;;;;4492435;28;20037;-57
2022/10/15 10:46:29;;;;;;;1.27;1.00;;;;;;;;;;4502088;28;20041;-58
2022/10/15 10:48:41;;;;;;;1.17;1.00;;;;;;;;;;4500839;28;20018;-58
2022/10/15 10:51:07;;;;;;;1.00;0.90;;;;;;;;;;4492101;28;20038;-57
2022/10/15 10:53:21;;;;;;;0.93;0.90;;;;;;;;;;4490560;28;20034;-57
2022/10/15 10:55:37;;;;;;;1.17;1.00;;;;;;;;;;4496280;28;20033;-57
2022/10/15 10:57:56;;;;;;;1.10;0.90;;;;;;;;;;4496403;28;20046;-57
2022/10/15 11:00:12;;;;;;;0.80;0.80;;;;;;;;;;4493211;28;20042;-58
2022/10/15 11:02:23;;;;;;;1.00;0.88;;;;;;;;;;4493140;28;20042;-58
2022/10/15 11:04:34;;;;;;;1.10;0.88;;;;;;;;;;4493357;28;20416;-58
2022/10/15 11:06:57;;;;;;;1.30;0.98;;;;;;;;;;4493750;28;20070;-57
2022/10/15 11:09:29;;;;;;;1.05;0.90;;;;;;;;;;4491334;28;20037;-58
2022/10/15 11:11:48;;;;;;;0.90;0.60;;;;;;;;;;4483247;28;20030;-59
2022/10/15 11:14:06;;;;;;;0.60;0.60;;;;;;;;;;4494041;28;20090;-59
2022/10/15 11:16:55;;;;;;;0.60;0.60;;;;;;;;;;4492495;28;20045;-58
2022/10/15 11:19:32;;;;;;;0.60;0.60;;;;;;;;;;4489630;28;20054;-58
2022/10/15 11:22:00;;;;;;;0.50;0.50;;;;;;;;;;4491967;28;20034;-58
2022/10/15 11:24:34;;;;;;;0.47;0.47;;;;;;;;;;4493174;28;20042;-58
2022/10/15 11:26:54;;;;;;;0.65;0.65;;;;;;;;;;4491260;28;20108;-58
2022/10/15 11:29:37;;;;;;;0.40;0.40;;;;;;;;;;4492753;28;20100;-57
2022/10/15 11:32:03;;;;;;;0.50;0.50;;;;;;;;;;4489894;28;20043;-58
2022/10/15 11:34:32;;;;;;;0.50;0.50;;;;;;;;;;4491778;28;20044;-58
2022/10/15 11:37:07;;;;;;;0.50;0.50;;;;;;;;;;4493268;28;20026;-58
2022/10/15 11:39:29;;;;;;;0.52;0.50;;;;;;;;;;4477063;28;20040;-57
2022/10/15 11:41:52;;;;;;;0.40;0.40;;;;;;;;;;4491581;28;20082;-57
2022/10/15 11:44:30;;;;;;;0.38;0.38;;;;;;;;;;4484528;28;20783;-58
2022/10/15 11:47:02;;;;;;;1.23;0.30;;;;;;;;;;4492272;28;20041;-58
2022/10/15 11:49:31;;;;;;;0.30;0.30;;;;;;;;;;4490908;28;20134;-58
2022/10/15 11:52:02;;;;;;;0.40;0.40;;;;;;;;;;4490867;28;20041;-57
2022/10/15 11:54:19;;;;;;;0.30;0.30;;;;;;;;;;4491599;28;20309;-57
2022/10/15 11:56:33;;;;;;;0.20;0.20;;;;;;;;;;4492399;28;20041;-57
2022/10/15 11:58:57;;;;;;;0.30;0.30;;;;;;;;;;4494379;28;20530;-57
2022/10/15 12:01:33;;;;;;;0.20;0.20;;;;;;;;;;4492570;28;20108;-58
2022/10/15 12:03:55;;;;;;;0.30;0.30;;;;;;;;;;4479182;28;20578;-57
2022/10/15 12:06:16;;;;;;;0.17;0.17;;;;;;;;;;4489987;28;20038;-59
2022/10/15 12:08:29;;;;;;;0.30;0.30;;;;;;;;;;4483829;28;20034;-58
2022/10/15 12:11:01;;;;;;;0.30;0.30;;;;;;;;;;4490504;28;20134;-59
2022/10/15 12:13:35;;;;;;;0.30;0.30;;;;;;;;;;4475388;28;20031;-59
2022/10/15 12:15:54;;;;;;;0.30;0.30;;;;;;;;;;4497255;28;20841;-59
2022/10/15 12:18:33;;;;;;;0.43;0.22;;;;;;;;;;4491932;28;20053;-57
2022/10/15 12:20:44;;;;;;;;;;;;;;;;;;4492014;28;20543;-58
2022/10/15 12:23:00;;;;;;;0.20;0.20;;;;;;;;;;4492887;28;19988;-58
2022/10/15 12:25:32;;;;;;;0.10;0.10;;;;;;;;;;4508075;28;20026;-57
2022/10/15 12:27:42;;;;;;;0.30;0.30;;;;;;;;;;4492588;28;20034;-58
2022/10/15 12:29:59;;;;;;;0.20;0.20;;;;;;;;;;4483551;28;20050;-57
2022/10/15 12:32:30;;;;;;;0.20;0.20;;;;;;;;;;4492233;28;20030;-58
2022/10/15 12:34:41;;;;;;;0.20;0.20;;;;;;;;;;4493565;28;20034;-57
2022/10/15 12:37:01;;;;;;;0.20;0.20;;;;;;;;;;4492279;28;20044;-57
2022/10/15 12:39:22;;;;;;;0.20;0.20;;;;;;;;;;4496245;28;20030;-57
2022/10/15 12:41:38;;;;;;;1.23;0.20;;;;;;;;;;4494471;28;20040;-57
2022/10/15 12:44:04;;;;;;;0.20;0.20;;;;;;;;;;4500385;28;20140;-57
2022/10/15 12:46:14;;;;;;;0.20;0.20;;;;;;;;;;4496430;28;20049;-57
2022/10/15 12:48:30;;;;;;;0.10;0.10;;;;;;;;;;4478570;28;20739;-57
2022/10/15 12:50:41;;;;;;;0.22;0.20;;;;;;;;;;4492353;28;20034;-57
2022/10/15 12:53:33;;;;;;;0.55;0.10;;;;;;;;;;4491892;28;20128;-57
2022/10/15 12:55:43;;;;;;;0.25;0.20;;;;;;;;;;4491978;28;20093;-57
2022/10/15 12:58:02;;;;;;;0.20;0.20;;;;;;;;;;4490880;28;21253;-57
2022/10/15 13:00:34;;;;;;;0.20;0.20;;;;;;;;;;4492489;28;20112;-57
2022/10/15 13:02:46;;;;;;;0.10;0.10;;;;;;;;;;4500106;28;20042;-57
2022/10/15 13:04:59;;;;;;;0.20;0.20;;;;;;;;;;4490314;28;20630;-57
2022/10/15 13:07:12;;;;;;;0.10;0.10;;;;;;;;;;4484304;28;20101;-57
2022/10/15 13:09:27;;;;;;;0.20;0.20;;;;;;;;;;4492091;28;20042;-57
2022/10/15 13:11:49;;;;;;;0.17;0.17;;;;;;;;;;4499932;28;20144;-57
2022/10/15 13:14:11;;;;;;;0.20;0.20;;;;;;;;;;4492700;28;20034;-57
2022/10/15 13:16:22;;;;;;;0.20;0.10;;;;;;;;;;4500174;28;20073;-57
2022/10/15 13:18:33;;;;;;;0.10;0.10;;;;;;;;;;4490424;28;20472;-57
2022/10/15 13:20:44;;;;;;;0.10;0.10;;;;;;;;;;4490706;28;20094;-57
2022/10/15 13:23:07;;;;;;;0.10;0.10;;;;;;;;;;4489670;28;21244;-57
2022/10/15 13:25:19;;;;;;;0.20;0.10;;;;;;;;;;4491909;28;21391;-57
2022/10/15 13:27:37;;;;;;;0.10;0.10;;;;;;;;;;4492328;28;20125;-57
2022/10/15 13:30:14;;;;;;;0.20;0.20;;;;;;;;;;4491068;28;20022;-57
2022/10/15 13:32:27;;;;;;;0.20;0.20;;;;;;;;;;4487132;28;20054;-57
2022/10/15 13:34:37;;;;;;;0.20;0.20;;;;;;;;;;4492741;28;20038;-57
2022/10/15 13:36:48;;;;;;;0.20;0.20;;;;;;;;;;4491905;28;20643;-57